Terminal Aerodrome Forecast
Issued by NWS

Home | Current Version | Previous Version | Text Only | Print | Product List | Glossary On
Versions: 1 2 3 4 5 6 7 8 9 10 11 12 13 14 15 16
000
FTUS42 KMHX 280924 AAA
TAFOAJ
TAF AMD
KOAJ 280924Z 2809/2906 00000KT 6SM BR BKN050
      TEMPO 2810/2813 2SM BR FEW003
     FM281400 16005KT P6SM BKN080
      AMD LTD TO CLD VIS AND WIND=

USA.gov is the U.S. government's official web portal to all federal, state and local government web resources and services.